sensor_id;sensor_type;location;lat;lon;timestamp;pressure;altitude;pressure_sealevel;temperature;humidity
75891;BME280;64571;47.512;19.054;2023-05-01T00:02:08;100711.56;;;13.32;58.49
75891;BME280;64571;47.512;19.054;2023-05-01T00:05:11;100733.28;;;13.35;58.02
75891;BME280;64571;47.512;19.054;2023-05-01T00:08:13;100737.22;;;13.34;58.29
75891;BME280;64571;47.512;19.054;2023-05-01T00:11:17;100730.06;;;13.28;58.24
75891;BME280;64571;47.512;19.054;2023-05-01T00:14:19;100713.25;;;13.14;58.03
75891;BME280;64571;47.512;19.054;2023-05-01T00:17:22;100705.63;;;13.06;57.92
75891;BME280;64571;47.512;19.054;2023-05-01T00:20:28;100724.63;;;13.18;57.78
75891;BME280;64571;47.512;19.054;2023-05-01T00:23:31;100713.25;;;13.14;58.02
75891;BME280;64571;47.512;19.054;2023-05-01T00:26:33;100719.06;;;13.18;58.00
75891;BME280;64571;47.512;19.054;2023-05-01T00:29:36;100708.69;;;13.05;58.23
75891;BME280;64571;47.512;19.054;2023-05-01T00:32:39;100710.44;;;13.01;59.08
75891;BME280;64571;47.512;19.054;2023-05-01T00:35:45;100725.16;;;13.06;59.56
75891;BME280;64571;47.512;19.054;2023-05-01T00:38:47;100707.34;;;12.88;59.69
75891;BME280;64571;47.512;19.054;2023-05-01T00:41:50;100700.63;;;12.89;59.79
75891;BME280;64571;47.512;19.054;2023-05-01T00:44:53;100702.88;;;12.87;60.07
75891;BME280;64571;47.512;19.054;2023-05-01T00:47:55;100712.13;;;13.02;58.98
75891;BME280;64571;47.512;19.054;2023-05-01T00:50:59;100720.50;;;13.02;58.75
75891;BME280;64571;47.512;19.054;2023-05-01T00:54:02;100719.22;;;12.94;59.38
75891;BME280;64571;47.512;19.054;2023-05-01T00:57:05;100722.75;;;13.00;58.78
75891;BME280;64571;47.512;19.054;2023-05-01T01:00:10;100721.19;;;12.93;58.78
75891;BME280;64571;47.512;19.054;2023-05-01T01:03:13;100701.53;;;12.85;58.73
75891;BME280;64571;47.512;19.054;2023-05-01T01:16:18;100720.75;;;12.86;58.41
75891;BME280;64571;47.512;19.054;2023-05-01T01:19:48;100727.16;;;12.87;58.54
75891;BME280;64571;47.512;19.054;2023-05-01T01:23:03;100722.38;;;12.87;58.43
75891;BME280;64571;47.512;19.054;2023-05-01T01:26:44;100722.72;;;12.86;58.35
75891;BME280;64571;47.512;19.054;2023-05-01T01:40:16;100700.75;;;12.65;63.97
75891;BME280;64571;47.512;19.054;2023-05-01T01:43:20;100722.97;;;12.71;64.16
75891;BME280;64571;47.512;19.054;2023-05-01T01:46:25;100721.19;;;12.61;65.82
75891;BME280;64571;47.512;19.054;2023-05-01T01:49:28;100720.66;;;12.59;65.79
75891;BME280;64571;47.512;19.054;2023-05-01T01:52:34;100695.00;;;12.43;67.08
75891;BME280;64571;47.512;19.054;2023-05-01T01:55:39;100697.25;;;12.41;66.78
75891;BME280;64571;47.512;19.054;2023-05-01T01:58:44;100708.16;;;12.37;68.44
75891;BME280;64571;47.512;19.054;2023-05-01T02:01:48;100708.47;;;12.36;68.42
75891;BME280;64571;47.512;19.054;2023-05-01T02:04:53;100731.50;;;12.41;68.14
75891;BME280;64571;47.512;19.054;2023-05-01T02:07:58;100719.47;;;12.27;68.65
75891;BME280;64571;47.512;19.054;2023-05-01T02:11:02;100712.91;;;12.18;68.91
75891;BME280;64571;47.512;19.054;2023-05-01T02:14:06;100722.66;;;12.21;69.40
75891;BME280;64571;47.512;19.054;2023-05-01T02:17:10;100709.97;;;12.09;70.05
75891;BME280;64571;47.512;19.054;2023-05-01T02:20:14;100709.00;;;12.00;71.04
75891;BME280;64571;47.512;19.054;2023-05-01T02:23:17;100717.03;;;12.02;71.57
75891;BME280;64571;47.512;19.054;2023-05-01T02:26:23;100723.81;;;11.96;71.48
75891;BME280;64571;47.512;19.054;2023-05-01T02:29:28;100717.44;;;11.95;71.54
75891;BME280;64571;47.512;19.054;2023-05-01T02:32:30;100728.81;;;11.99;70.65
75891;BME280;64571;47.512;19.054;2023-05-01T02:35:40;100724.87;;;12.00;69.94
75891;BME280;64571;47.512;19.054;2023-05-01T02:38:43;100709.44;;;11.88;69.99
75891;BME280;64571;47.512;19.054;2023-05-01T02:41:46;100722.44;;;11.93;69.56
75891;BME280;64571;47.512;19.054;2023-05-01T02:44:56;100710.31;;;11.84;69.84
75891;BME280;64571;47.512;19.054;2023-05-01T02:48:00;100719.66;;;11.93;69.45
75891;BME280;64571;47.512;19.054;2023-05-01T02:51:06;100722.41;;;11.98;69.41
75891;BME280;64571;47.512;19.054;2023-05-01T02:54:09;100712.44;;;11.92;69.10
75891;BME280;64571;47.512;19.054;2023-05-01T02:57:12;100722.69;;;11.97;68.98
75891;BME280;64571;47.512;19.054;2023-05-01T03:00:14;100702.28;;;11.82;68.86
75891;BME280;64571;47.512;19.054;2023-05-01T03:03:18;100707.41;;;11.94;68.88
75891;BME280;64571;47.512;19.054;2023-05-01T03:06:20;100728.56;;;12.14;68.69
75891;BME280;64571;47.512;19.054;2023-05-01T03:09:24;100729.72;;;12.13;68.97
75891;BME280;64571;47.512;19.054;2023-05-01T03:12:26;100735.72;;;12.20;69.46
75891;BME280;64571;47.512;19.054;2023-05-01T03:15:29;100737.91;;;12.04;71.25
75891;BME280;64571;47.512;19.054;2023-05-01T03:18:31;100738.75;;;12.05;71.03
75891;BME280;64571;47.512;19.054;2023-05-01T03:21:34;100740.47;;;12.01;70.08
75891;BME280;64571;47.512;19.054;2023-05-01T03:24:38;100727.38;;;11.77;70.28
75891;BME280;64571;47.512;19.054;2023-05-01T03:27:40;100749.06;;;11.80;70.56
75891;BME280;64571;47.512;19.054;2023-05-01T03:30:43;100735.94;;;11.62;71.15
75891;BME280;64571;47.512;19.054;2023-05-01T03:33:46;100750.38;;;11.64;70.81
75891;BME280;64571;47.512;19.054;2023-05-01T03:36:50;100733.38;;;11.41;70.33
75891;BME280;64571;47.512;19.054;2023-05-01T03:39:52;100752.72;;;11.52;70.37
75891;BME280;64571;47.512;19.054;2023-05-01T03:42:57;100738.41;;;11.39;70.40
75891;BME280;64571;47.512;19.054;2023-05-01T03:46:00;100749.75;;;11.43;70.58
75891;BME280;64571;47.512;19.054;2023-05-01T03:49:03;100733.19;;;11.33;71.08
75891;BME280;64571;47.512;19.054;2023-05-01T03:52:07;100742.13;;;11.30;71.80
75891;BME280;64571;47.512;19.054;2023-05-01T03:55:09;100760.13;;;11.37;72.44
75891;BME280;64571;47.512;19.054;2023-05-01T03:58:12;100736.03;;;11.28;72.90
75891;BME280;64571;47.512;19.054;2023-05-01T04:01:15;100745.84;;;11.20;75.05
75891;BME280;64571;47.512;19.054;2023-05-01T04:04:17;100747.59;;;11.11;76.45
75891;BME280;64571;47.512;19.054;2023-05-01T04:07:20;100759.41;;;10.98;78.47
75891;BME280;64571;47.512;19.054;2023-05-01T04:10:23;100748.06;;;10.89;79.01
75891;BME280;64571;47.512;19.054;2023-05-01T04:13:26;100746.13;;;10.89;78.99
75891;BME280;64571;47.512;19.054;2023-05-01T04:16:30;100748.94;;;10.84;79.07
75891;BME280;64571;47.512;19.054;2023-05-01T04:19:32;100761.72;;;10.90;79.00
75891;BME280;64571;47.512;19.054;2023-05-01T04:22:36;100750.75;;;10.70;79.62
75891;BME280;64571;47.512;19.054;2023-05-01T04:25:38;100767.06;;;10.82;79.72
75891;BME280;64571;47.512;19.054;2023-05-01T04:28:41;100749.09;;;10.69;79.63
75891;BME280;64571;47.512;19.054;2023-05-01T04:31:45;100773.09;;;10.89;79.27
75891;BME280;64571;47.512;19.054;2023-05-01T04:34:48;100757.44;;;10.69;80.10
75891;BME280;64571;47.512;19.054;2023-05-01T04:37:50;100781.50;;;10.84;80.27
75891;BME280;64571;47.512;19.054;2023-05-01T04:40:53;100757.44;;;10.69;80.53
75891;BME280;64571;47.512;19.054;2023-05-01T04:43:55;100763.00;;;10.69;80.77
75891;BME280;64571;47.512;19.054;2023-05-01T04:47:00;100769.13;;;10.66;80.82
75891;BME280;64571;47.512;19.054;2023-05-01T04:50:05;100763.03;;;10.64;80.80
75891;BME280;64571;47.512;19.054;2023-05-01T04:53:08;100784.56;;;10.82;80.63
75891;BME280;64571;47.512;19.054;2023-05-01T04:56:10;100772.03;;;10.85;80.17
75891;BME280;64571;47.512;19.054;2023-05-01T04:59:13;100791.69;;;10.94;80.42
75891;BME280;64571;47.512;19.054;2023-05-01T05:02:16;100788.97;;;10.88;80.51
75891;BME280;64571;47.512;19.054;2023-05-01T05:05:19;100775.87;;;10.89;80.22
75891;BME280;64571;47.512;19.054;2023-05-01T05:08:21;100799.06;;;11.13;79.35
75891;BME280;64571;47.512;19.054;2023-05-01T05:11:24;100777.78;;;10.99;79.00
75891;BME280;64571;47.512;19.054;2023-05-01T05:14:29;100793.50;;;11.13;78.96
75891;BME280;64571;47.512;19.054;2023-05-01T05:17:34;100796.22;;;11.19;78.10
75891;BME280;64571;47.512;19.054;2023-05-01T05:20:37;100797.81;;;11.25;77.30
75891;BME280;64571;47.512;19.054;2023-05-01T05:23:41;100797.53;;;11.26;76.75
75891;BME280;64571;47.512;19.054;2023-05-01T05:26:43;100780.09;;;11.15;76.38
75891;BME280;64571;47.512;19.054;2023-05-01T05:29:46;100803.31;;;11.35;76.29
75891;BME280;64571;47.512;19.054;2023-05-01T05:32:48;100799.59;;;11.45;75.80
75891;BME280;64571;47.512;19.054;2023-05-01T05:35:51;100785.66;;;11.45;75.40
75891;BME280;64571;47.512;19.054;2023-05-01T05:38:54;100793.06;;;11.54;74.80
75891;BME280;64571;47.512;19.054;2023-05-01T05:41:57;100797.56;;;11.74;74.07
75891;BME280;64571;47.512;19.054;2023-05-01T05:45:00;100809.47;;;11.85;73.66
75891;BME280;64571;47.512;19.054;2023-05-01T05:48:03;100808.59;;;11.89;73.22
75891;BME280;64571;47.512;19.054;2023-05-01T05:51:06;100791.09;;;11.84;72.92
75891;BME280;64571;47.512;19.054;2023-05-01T05:54:08;100783.53;;;11.89;72.36
75891;BME280;64571;47.512;19.054;2023-05-01T05:57:12;100791.97;;;12.03;71.82
75891;BME280;64571;47.512;19.054;2023-05-01T06:00:16;100788.72;;;12.58;69.49
75891;BME280;64571;47.512;19.054;2023-05-01T06:03:21;100805.47;;;13.42;66.40
75891;BME280;64571;47.512;19.054;2023-05-01T06:06:24;100782.25;;;13.88;64.02
75891;BME280;64571;47.512;19.054;2023-05-01T06:09:27;100807.78;;;14.36;61.33
75891;BME280;64571;47.512;19.054;2023-05-01T06:12:31;100806.50;;;14.42;60.51
75891;BME280;64571;47.512;19.054;2023-05-01T06:15:36;100786.41;;;14.90;58.63
75891;BME280;64571;47.512;19.054;2023-05-01T06:18:40;100810.66;;;15.04;56.61
75891;BME280;64571;47.512;19.054;2023-05-01T06:21:44;100801.28;;;15.22;55.96
75891;BME280;64571;47.512;19.054;2023-05-01T06:24:48;100817.25;;;15.53;55.25
75891;BME280;64571;47.512;19.054;2023-05-01T06:27:51;100803.03;;;15.40;53.71
75891;BME280;64571;47.512;19.054;2023-05-01T06:30:53;100805.72;;;15.77;51.37
75891;BME280;64571;47.512;19.054;2023-05-01T06:33:56;100819.34;;;15.69;47.39
75891;BME280;64571;47.512;19.054;2023-05-01T06:36:59;100805.59;;;15.90;46.87
75891;BME280;64571;47.512;19.054;2023-05-01T06:40:04;100811.62;;;15.75;46.47
75891;BME280;64571;47.512;19.054;2023-05-01T06:43:06;100806.41;;;15.82;44.79
75891;BME280;64571;47.512;19.054;2023-05-01T06:46:09;100812.63;;;16.19;45.65
75891;BME280;64571;47.512;19.054;2023-05-01T06:49:12;100812.69;;;16.54;44.65
75891;BME280;64571;47.512;19.054;2023-05-01T06:52:15;100795.66;;;16.33;42.54
75891;BME280;64571;47.512;19.054;2023-05-01T06:55:17;100792.25;;;16.53;42.95
75891;BME280;64571;47.512;19.054;2023-05-01T06:58:20;100794.38;;;16.65;41.85
75891;BME280;64571;47.512;19.054;2023-05-01T07:01:26;100801.66;;;16.57;41.48
75891;BME280;64571;47.512;19.054;2023-05-01T07:04:30;100813.69;;;16.58;42.61
75891;BME280;64571;47.512;19.054;2023-05-01T07:07:33;100795.41;;;17.04;41.65
75891;BME280;64571;47.512;19.054;2023-05-01T07:10:36;100808.09;;;17.01;39.18
75891;BME280;64571;47.512;19.054;2023-05-01T07:13:42;100812.25;;;17.12;38.28
75891;BME280;64571;47.512;19.054;2023-05-01T07:16:45;100808.72;;;17.41;39.97
75891;BME280;64571;47.512;19.054;2023-05-01T07:19:47;100815.66;;;17.44;39.92
75891;BME280;64571;47.512;19.054;2023-05-01T07:22:51;100806.53;;;17.47;39.27
75891;BME280;64571;47.512;19.054;2023-05-01T07:25:53;100809.00;;;17.66;38.97
75891;BME280;64571;47.512;19.054;2023-05-01T07:28:57;100817.25;;;17.71;38.85
75891;BME280;64571;47.512;19.054;2023-05-01T07:31:59;100809.91;;;17.14;38.57
75891;BME280;64571;47.512;19.054;2023-05-01T07:35:03;100806.28;;;16.62;38.14
75891;BME280;64571;47.512;19.054;2023-05-01T07:38:06;100815.72;;;16.92;38.13
75891;BME280;64571;47.512;19.054;2023-05-01T07:41:09;100810.78;;;16.80;37.31
75891;BME280;64571;47.512;19.054;2023-05-01T07:44:12;100817.03;;;16.77;37.34
75891;BME280;64571;47.512;19.054;2023-05-01T07:47:15;100805.16;;;16.98;36.65
75891;BME280;64571;47.512;19.054;2023-05-01T07:50:17;100797.38;;;17.20;36.81
75891;BME280;64571;47.512;19.054;2023-05-01T07:53:20;100799.03;;;17.04;36.70
75891;BME280;64571;47.512;19.054;2023-05-01T07:56:23;100804.41;;;17.53;36.07
75891;BME280;64571;47.512;19.054;2023-05-01T07:59:27;100811.47;;;17.59;35.18
75891;BME280;64571;47.512;19.054;2023-05-01T08:02:29;100808.47;;;17.64;34.91
75891;BME280;64571;47.512;19.054;2023-05-01T08:05:32;100799.44;;;17.50;34.64
75891;BME280;64571;47.512;19.054;2023-05-01T08:08:34;100808.06;;;17.44;34.75
75891;BME280;64571;47.512;19.054;2023-05-01T08:11:37;100799.37;;;16.85;35.54
75891;BME280;64571;47.512;19.054;2023-05-01T08:14:39;100817.13;;;17.50;35.23
75891;BME280;64571;47.512;19.054;2023-05-01T08:17:42;100802.34;;;17.70;34.63
75891;BME280;64571;47.512;19.054;2023-05-01T08:20:45;100816.66;;;17.39;34.95
75891;BME280;64571;47.512;19.054;2023-05-01T08:23:49;100806.50;;;17.64;34.64
75891;BME280;64571;47.512;19.054;2023-05-01T08:26:52;100813.34;;;18.02;33.93
75891;BME280;64571;47.512;19.054;2023-05-01T08:29:54;100797.47;;;17.41;34.55
75891;BME280;64571;47.512;19.054;2023-05-01T08:32:57;100800.88;;;17.64;34.64
75891;BME280;64571;47.512;19.054;2023-05-01T08:36:00;100810.03;;;18.00;34.24
75891;BME280;64571;47.512;19.054;2023-05-01T08:39:03;100811.50;;;18.06;34.45
75891;BME280;64571;47.512;19.054;2023-05-01T08:42:07;100794.75;;;18.09;33.80
75891;BME280;64571;47.512;19.054;2023-05-01T08:45:09;100785.25;;;18.22;34.19
75891;BME280;64571;47.512;19.054;2023-05-01T08:48:15;100804.16;;;18.43;33.97
75891;BME280;64571;47.512;19.054;2023-05-01T08:51:20;100806.53;;;18.32;34.06
75891;BME280;64571;47.512;19.054;2023-05-01T08:54:26;100806.87;;;18.01;34.65
75891;BME280;64571;47.512;19.054;2023-05-01T08:57:29;100808.97;;;18.42;34.36
75891;BME280;64571;47.512;19.054;2023-05-01T09:00:34;100801.66;;;18.71;33.80
75891;BME280;64571;47.512;19.054;2023-05-01T09:03:38;100780.94;;;18.25;34.30
75891;BME280;64571;47.512;19.054;2023-05-01T09:06:40;100794.00;;;18.51;33.64
75891;BME280;64571;47.512;19.054;2023-05-01T09:09:46;100789.75;;;18.44;33.93
75891;BME280;64571;47.512;19.054;2023-05-01T09:12:53;100806.44;;;18.50;34.14
75891;BME280;64571;47.512;19.054;2023-05-01T09:15:57;100796.25;;;18.87;33.59
75891;BME280;64571;47.512;19.054;2023-05-01T09:19:01;100774.78;;;18.94;33.59
75891;BME280;64571;47.512;19.054;2023-05-01T09:22:04;100788.84;;;19.15;33.04
75891;BME280;64571;47.512;19.054;2023-05-01T09:25:07;100790.88;;;19.27;32.97
75891;BME280;64571;47.512;19.054;2023-05-01T09:28:12;100793.97;;;19.34;32.70
75891;BME280;64571;47.512;19.054;2023-05-01T09:34:24;100800.66;;;19.30;32.61
75891;BME280;64571;47.512;19.054;2023-05-01T09:37:28;100794.31;;;19.33;32.72
75891;BME280;64571;47.512;19.054;2023-05-01T09:40:31;100791.47;;;19.66;32.42
75891;BME280;64571;47.512;19.054;2023-05-01T09:43:34;100785.16;;;19.36;32.50
75891;BME280;64571;47.512;19.054;2023-05-01T09:46:40;100783.28;;;19.28;32.66
75891;BME280;64571;47.512;19.054;2023-05-01T09:49:44;100779.50;;;19.81;32.37
75891;BME280;64571;47.512;19.054;2023-05-01T09:52:49;100779.78;;;20.13;31.67
75891;BME280;64571;47.512;19.054;2023-05-01T09:56:00;100767.91;;;19.95;31.91
75891;BME280;64571;47.512;19.054;2023-05-01T09:59:16;100780.22;;;20.27;31.88
75891;BME280;64571;47.512;19.054;2023-05-01T10:02:28;100772.59;;;20.15;32.29
75891;BME280;64571;47.512;19.054;2023-05-01T10:05:41;100774.62;;;19.57;33.30
75891;BME280;64571;47.512;19.054;2023-05-01T10:08:49;100775.28;;;20.12;32.34
75891;BME280;64571;47.512;19.054;2023-05-01T10:11:54;100757.91;;;20.10;32.37
75891;BME280;64571;47.512;19.054;2023-05-01T10:14:58;100751.28;;;20.30;31.79
75891;BME280;64571;47.512;19.054;2023-05-01T10:18:13;100734.44;;;20.34;32.31
75891;BME280;64571;47.512;19.054;2023-05-01T10:21:15;100752.19;;;20.34;32.55
75891;BME280;64571;47.512;19.054;2023-05-01T10:24:18;100745.63;;;20.30;32.20
75891;BME280;64571;47.512;19.054;2023-05-01T10:27:22;100740.84;;;20.06;32.13
75891;BME280;64571;47.512;19.054;2023-05-01T10:30:26;100733.97;;;20.84;31.75
75891;BME280;64571;47.512;19.054;2023-05-01T10:33:28;100727.41;;;21.24;30.87
75891;BME280;64571;47.512;19.054;2023-05-01T10:36:36;100715.66;;;21.22;30.48
75891;BME280;64571;47.512;19.054;2023-05-01T10:39:40;100730.50;;;21.19;30.64
75891;BME280;64571;47.512;19.054;2023-05-01T10:43:21;100703.12;;;21.07;31.07
75891;BME280;64571;47.512;19.054;2023-05-01T10:46:29;100724.25;;;21.26;30.71
75891;BME280;64571;47.512;19.054;2023-05-01T10:50:10;100706.28;;;21.34;30.53
75891;BME280;64571;47.512;19.054;2023-05-01T11:06:24;100708.91;;;21.27;31.77
75891;BME280;64571;47.512;19.054;2023-05-01T11:09:46;100704.25;;;21.18;31.65
75891;BME280;64571;47.512;19.054;2023-05-01T11:12:51;100699.72;;;21.61;31.30
75891;BME280;64571;47.512;19.054;2023-05-01T11:15:54;100688.66;;;21.88;30.18
75891;BME280;64571;47.512;19.054;2023-05-01T11:18:56;100694.41;;;21.91;29.83
75891;BME280;64571;47.512;19.054;2023-05-01T11:21:59;100695.53;;;21.71;30.85
75891;BME280;64571;47.512;19.054;2023-05-01T11:25:03;100676.47;;;21.68;31.12
75891;BME280;64571;47.512;19.054;2023-05-01T11:28:06;100696.66;;;22.02;30.78
75891;BME280;64571;47.512;19.054;2023-05-01T11:31:16;100700.09;;;21.76;31.22
75891;BME280;64571;47.512;19.054;2023-05-01T11:34:19;100673.84;;;21.94;30.98
75891;BME280;64571;47.512;19.054;2023-05-01T11:37:39;100683.34;;;22.37;30.40
75891;BME280;64571;47.512;19.054;2023-05-01T11:40:42;100683.28;;;22.34;30.23
75891;BME280;64571;47.512;19.054;2023-05-01T11:43:52;100657.31;;;21.96;29.83
75891;BME280;64571;47.512;19.054;2023-05-01T11:46:55;100659.41;;;21.99;30.44
75891;BME280;64571;47.512;19.054;2023-05-01T11:50:02;100671.72;;;22.42;29.79
75891;BME280;64571;47.512;19.054;2023-05-01T11:53:12;100660.37;;;22.81;29.34
75891;BME280;64571;47.512;19.054;2023-05-01T11:56:21;100660.53;;;22.69;29.18
75891;BME280;64571;47.512;19.054;2023-05-01T11:59:28;100667.53;;;22.36;29.82
75891;BME280;64571;47.512;19.054;2023-05-01T12:02:31;100654.97;;;22.53;29.09
75891;BME280;64571;47.512;19.054;2023-05-01T12:05:36;100656.06;;;22.48;29.92
75891;BME280;64571;47.512;19.054;2023-05-01T12:08:43;100658.44;;;22.85;29.37
75891;BME280;64571;47.512;19.054;2023-05-01T12:11:52;100654.41;;;22.67;29.56
75891;BME280;64571;47.512;19.054;2023-05-01T12:14:55;100653.38;;;22.75;29.04
75891;BME280;64571;47.512;19.054;2023-05-01T12:17:58;100648.47;;;22.53;29.25
75891;BME280;64571;47.512;19.054;2023-05-01T12:21:00;100648.50;;;22.95;28.48
75891;BME280;64571;47.512;19.054;2023-05-01T12:24:14;100635.00;;;22.88;28.76
75891;BME280;64571;47.512;19.054;2023-05-01T12:27:18;100636.66;;;22.89;28.74
75891;BME280;64571;47.512;19.054;2023-05-01T12:30:25;100636.09;;;22.61;28.67
75891;BME280;64571;47.512;19.054;2023-05-01T12:33:28;100632.59;;;22.48;29.07
75891;BME280;64571;47.512;19.054;2023-05-01T12:36:33;100617.16;;;22.45;28.97
75891;BME280;64571;47.512;19.054;2023-05-01T12:39:41;100617.22;;;22.49;29.01
75891;BME280;64571;47.512;19.054;2023-05-01T12:42:53;100613.78;;;22.59;28.53
75891;BME280;64571;47.512;19.054;2023-05-01T12:45:57;100623.00;;;22.95;28.42
75891;BME280;64571;47.512;19.054;2023-05-01T12:49:03;100601.44;;;23.13;28.07
75891;BME280;64571;47.512;19.054;2023-05-01T12:52:07;100610.13;;;23.47;27.79
75891;BME280;64571;47.512;19.054;2023-05-01T12:55:15;100586.81;;;23.34;27.59
75891;BME280;64571;47.512;19.054;2023-05-01T12:58:33;100595.31;;;22.88;28.23
75891;BME280;64571;47.512;19.054;2023-05-01T13:01:39;100601.28;;;23.03;28.23
75891;BME280;64571;47.512;19.054;2023-05-01T13:04:43;100593.37;;;22.50;28.85
75891;BME280;64571;47.512;19.054;2023-05-01T13:07:50;100588.69;;;22.19;29.18
75891;BME280;64571;47.512;19.054;2023-05-01T13:10:54;100593.47;;;22.77;28.60
75891;BME280;64571;47.512;19.054;2023-05-01T13:14:05;100590.97;;;23.40;27.95
75891;BME280;64571;47.512;19.054;2023-05-01T13:17:09;100582.09;;;23.19;28.04
75891;BME280;64571;47.512;19.054;2023-05-01T13:20:13;100580.97;;;23.50;27.55
75891;BME280;64571;47.512;19.054;2023-05-01T13:23:16;100571.81;;;23.34;27.48
75891;BME280;64571;47.512;19.054;2023-05-01T13:26:30;100567.56;;;22.97;28.12
75891;BME280;64571;47.512;19.054;2023-05-01T13:29:38;100568.19;;;23.10;28.15
75891;BME280;64571;47.512;19.054;2023-05-01T13:32:41;100552.06;;;22.91;28.16
75891;BME280;64571;47.512;19.054;2023-05-01T13:35:43;100560.19;;;23.16;28.21
75891;BME280;64571;47.512;19.054;2023-05-01T13:38:50;100568.47;;;22.82;28.32
75891;BME280;64571;47.512;19.054;2023-05-01T13:41:54;100550.78;;;22.66;28.51
75891;BME280;64571;47.512;19.054;2023-05-01T13:44:57;100539.28;;;23.01;28.17
75891;BME280;64571;47.512;19.054;2023-05-01T13:48:00;100545.22;;;22.92;28.16
75891;BME280;64571;47.512;19.054;2023-05-01T13:51:07;100541.25;;;22.97;28.02
75891;BME280;64571;47.512;19.054;2023-05-01T13:54:10;100544.16;;;22.81;28.03
75891;BME280;64571;47.512;19.054;2023-05-01T13:57:13;100546.59;;;22.60;28.32
75891;BME280;64571;47.512;19.054;2023-05-01T14:00:17;100539.38;;;22.85;28.15
75891;BME280;64571;47.512;19.054;2023-05-01T14:03:20;100530.38;;;23.03;27.88
75891;BME280;64571;47.512;19.054;2023-05-01T14:06:23;100519.94;;;23.07;27.71
75891;BME280;64571;47.512;19.054;2023-05-01T14:09:26;100527.88;;;22.97;27.84
75891;BME280;64571;47.512;19.054;2023-05-01T14:12:30;100518.59;;;23.00;27.29
75891;BME280;64571;47.512;19.054;2023-05-01T14:15:33;100521.00;;;22.98;27.42
75891;BME280;64571;47.512;19.054;2023-05-01T14:18:43;100527.66;;;23.10;27.32
75891;BME280;64571;47.512;19.054;2023-05-01T14:21:46;100519.94;;;23.33;27.31
75891;BME280;64571;47.512;19.054;2023-05-01T14:24:49;100522.69;;;23.03;27.50
75891;BME280;64571;47.512;19.054;2023-05-01T14:27:53;100511.22;;;22.96;27.68
75891;BME280;64571;47.512;19.054;2023-05-01T14:30:56;100511.41;;;23.07;27.64
75891;BME280;64571;47.512;19.054;2023-05-01T14:34:01;100511.66;;;22.75;27.80
75891;BME280;64571;47.512;19.054;2023-05-01T14:37:05;100506.34;;;22.50;28.27
75891;BME280;64571;47.512;19.054;2023-05-01T14:40:11;100498.75;;;22.55;28.29
75891;BME280;64571;47.512;19.054;2023-05-01T14:43:18;100493.78;;;22.71;28.14
75891;BME280;64571;47.512;19.054;2023-05-01T14:46:31;100488.28;;;22.59;27.98
75891;BME280;64571;47.512;19.054;2023-05-01T14:49:34;100492.41;;;22.61;27.87
75891;BME280;64571;47.512;19.054;2023-05-01T14:52:38;100495.88;;;22.32;28.27
75891;BME280;64571;47.512;19.054;2023-05-01T14:55:40;100477.22;;;22.08;28.40
75891;BME280;64571;47.512;19.054;2023-05-01T14:58:43;100469.81;;;22.22;28.33
75891;BME280;64571;47.512;19.054;2023-05-01T15:01:45;100468.13;;;22.41;28.08
75891;BME280;64571;47.512;19.054;2023-05-01T15:04:48;100483.09;;;22.61;27.90
75891;BME280;64571;47.512;19.054;2023-05-01T15:07:55;100465.94;;;22.54;28.06
75891;BME280;64571;47.512;19.054;2023-05-01T15:10:58;100470.87;;;22.57;27.91
75891;BME280;64571;47.512;19.054;2023-05-01T15:14:05;100465.19;;;22.34;28.28
75891;BME280;64571;47.512;19.054;2023-05-01T15:17:07;100489.94;;;22.60;28.06
75891;BME280;64571;47.512;19.054;2023-05-01T15:20:11;100484.31;;;22.40;28.22
75891;BME280;64571;47.512;19.054;2023-05-01T15:23:15;100492.75;;;21.79;28.93
75891;BME280;64571;47.512;19.054;2023-05-01T15:26:17;100468.84;;;21.57;29.18
75891;BME280;64571;47.512;19.054;2023-05-01T15:29:20;100478.78;;;21.66;29.45
75891;BME280;64571;47.512;19.054;2023-05-01T15:32:22;100478.25;;;21.61;29.68
75891;BME280;64571;47.512;19.054;2023-05-01T15:35:25;100459.03;;;21.51;29.78
75891;BME280;64571;47.512;19.054;2023-05-01T15:38:28;100459.03;;;21.70;29.51
75891;BME280;64571;47.512;19.054;2023-05-01T15:41:31;100451.75;;;21.69;29.67
75891;BME280;64571;47.512;19.054;2023-05-01T15:44:34;100465.00;;;21.65;29.65
75891;BME280;64571;47.512;19.054;2023-05-01T15:47:36;100470.91;;;21.76;29.56
75891;BME280;64571;47.512;19.054;2023-05-01T15:50:39;100465.16;;;21.72;29.53
75891;BME280;64571;47.512;19.054;2023-05-01T15:53:42;100468.13;;;21.79;29.44
75891;BME280;64571;47.512;19.054;2023-05-01T15:56:45;100473.19;;;21.70;29.17
75891;BME280;64571;47.512;19.054;2023-05-01T15:59:47;100468.72;;;21.88;29.10
75891;BME280;64571;47.512;19.054;2023-05-01T16:02:55;100464.56;;;21.82;29.58
75891;BME280;64571;47.512;19.054;2023-05-01T16:05:58;100473.34;;;21.77;29.70
75891;BME280;64571;47.512;19.054;2023-05-01T16:09:01;100455.09;;;21.55;29.74
75891;BME280;64571;47.512;19.054;2023-05-01T16:12:05;100463.06;;;21.49;29.90
75891;BME280;64571;47.512;19.054;2023-05-01T16:15:08;100470.50;;;21.22;30.01
75891;BME280;64571;47.512;19.054;2023-05-01T16:18:17;100466.38;;;21.20;30.22
75891;BME280;64571;47.512;19.054;2023-05-01T16:21:21;100471.00;;;21.09;30.63
75891;BME280;64571;47.512;19.054;2023-05-01T16:24:25;100473.34;;;21.07;30.59
75891;BME280;64571;47.512;19.054;2023-05-01T16:27:27;100462.03;;;21.07;30.61
75891;BME280;64571;47.512;19.054;2023-05-01T16:30:30;100455.81;;;20.82;30.76